sensor_id;sensor_type;location;lat;lon;timestamp;pressure;altitude;pressure_sealevel;temperature;humidity
11985;BME280;6052;53.246;10.368;2023-08-20T00:01:29;101534.19;;;25.82;85.89
11985;BME280;6052;53.246;10.368;2023-08-20T00:03:59;101541.34;;;25.83;85.71
11985;BME280;6052;53.246;10.368;2023-08-20T00:06:29;101545.28;;;25.60;86.15
11985;BME280;6052;53.246;10.368;2023-08-20T00:09:01;101551.59;;;25.61;86.70
11985;BME280;6052;53.246;10.368;2023-08-20T00:11:33;101549.59;;;25.83;85.48
11985;BME280;6052;53.246;10.368;2023-08-20T00:14:03;101547.97;;;25.82;86.17
11985;BME280;6052;53.246;10.368;2023-08-20T00:16:33;101552.66;;;25.82;85.45
11985;BME280;6052;53.246;10.368;2023-08-20T00:19:03;101562.81;;;25.73;86.32
11985;BME280;6052;53.246;10.368;2023-08-20T00:21:33;101566.06;;;25.75;86.02
11985;BME280;6052;53.246;10.368;2023-08-20T00:24:07;101562.06;;;25.81;85.98
11985;BME280;6052;53.246;10.368;2023-08-20T00:26:37;101564.47;;;25.82;85.87
11985;BME280;6052;53.246;10.368;2023-08-20T00:29:06;101577.19;;;25.70;86.03
11985;BME280;6052;53.246;10.368;2023-08-20T00:31:36;101580.28;;;25.68;85.63
11985;BME280;6052;53.246;10.368;2023-08-20T00:34:05;101582.03;;;25.64;86.29
11985;BME280;6052;53.246;10.368;2023-08-20T00:36:35;101586.09;;;25.67;85.83
11985;BME280;6052;53.246;10.368;2023-08-20T00:39:07;101583.88;;;25.47;86.51
11985;BME280;6052;53.246;10.368;2023-08-20T00:41:36;101590.72;;;25.58;85.66
11985;BME280;6052;53.246;10.368;2023-08-20T00:44:06;101585.28;;;25.66;86.26
11985;BME280;6052;53.246;10.368;2023-08-20T00:46:35;101588.91;;;25.53;86.16
11985;BME280;6052;53.246;10.368;2023-08-20T00:49:06;101589.69;;;25.45;85.99
11985;BME280;6052;53.246;10.368;2023-08-20T00:51:36;101584.63;;;25.61;85.83
11985;BME280;6052;53.246;10.368;2023-08-20T00:54:09;101577.28;;;25.56;85.17
11985;BME280;6052;53.246;10.368;2023-08-20T00:56:39;101585.06;;;25.54;85.33
11985;BME280;6052;53.246;10.368;2023-08-20T00:59:08;101584.53;;;25.52;85.70
11985;BME280;6052;53.246;10.368;2023-08-20T01:01:40;101582.50;;;25.36;85.56
11985;BME280;6052;53.246;10.368;2023-08-20T01:04:10;101576.81;;;25.54;85.78
11985;BME280;6052;53.246;10.368;2023-08-20T01:06:46;101583.78;;;25.60;85.61
11985;BME280;6052;53.246;10.368;2023-08-20T01:09:30;101580.88;;;25.57;86.02
11985;BME280;6052;53.246;10.368;2023-08-20T01:12:03;101586.38;;;25.57;84.40
11985;BME280;6052;53.246;10.368;2023-08-20T01:14:33;101574.59;;;25.65;84.82
11985;BME280;6052;53.246;10.368;2023-08-20T01:17:03;101585.59;;;25.65;84.91
11985;BME280;6052;53.246;10.368;2023-08-20T01:19:32;101576.94;;;25.49;85.17
11985;BME280;6052;53.246;10.368;2023-08-20T01:22:21;101581.31;;;25.50;84.69
11985;BME280;6052;53.246;10.368;2023-08-20T01:25:04;101583.81;;;25.38;84.97
11985;BME280;6052;53.246;10.368;2023-08-20T01:27:43;101576.13;;;25.49;84.22
11985;BME280;6052;53.246;10.368;2023-08-20T01:30:22;101573.16;;;25.37;84.60
11985;BME280;6052;53.246;10.368;2023-08-20T01:32:54;101576.19;;;25.35;84.84
11985;BME280;6052;53.246;10.368;2023-08-20T01:35:24;101578.31;;;25.38;84.26
11985;BME280;6052;53.246;10.368;2023-08-20T01:37:54;101578.81;;;25.40;84.39
11985;BME280;6052;53.246;10.368;2023-08-20T01:40:23;101586.50;;;25.30;84.55
11985;BME280;6052;53.246;10.368;2023-08-20T01:42:52;101587.25;;;25.22;84.62
11985;BME280;6052;53.246;10.368;2023-08-20T01:45:34;101590.69;;;25.27;84.49
11985;BME280;6052;53.246;10.368;2023-08-20T01:48:05;101593.06;;;25.20;84.82
11985;BME280;6052;53.246;10.368;2023-08-20T01:50:35;101594.78;;;25.16;84.37
11985;BME280;6052;53.246;10.368;2023-08-20T01:53:04;101594.59;;;25.13;84.82
11985;BME280;6052;53.246;10.368;2023-08-20T01:55:34;101594.59;;;25.13;84.47
11985;BME280;6052;53.246;10.368;2023-08-20T01:58:03;101592.66;;;25.13;84.53
11985;BME280;6052;53.246;10.368;2023-08-20T02:00:35;101599.09;;;25.09;84.19
11985;BME280;6052;53.246;10.368;2023-08-20T02:03:05;101597.25;;;25.04;84.04
11985;BME280;6052;53.246;10.368;2023-08-20T02:05:35;101605.31;;;25.01;84.62
11985;BME280;6052;53.246;10.368;2023-08-20T02:08:05;101595.47;;;25.00;84.08
11985;BME280;6052;53.246;10.368;2023-08-20T02:10:35;101597.19;;;24.96;84.43
11985;BME280;6052;53.246;10.368;2023-08-20T02:13:04;101598.34;;;24.95;84.90
11985;BME280;6052;53.246;10.368;2023-08-20T02:15:36;101595.28;;;24.96;84.33
11985;BME280;6052;53.246;10.368;2023-08-20T02:18:06;101596.41;;;24.95;84.69
11985;BME280;6052;53.246;10.368;2023-08-20T02:20:35;101593.66;;;24.95;84.71
11985;BME280;6052;53.246;10.368;2023-08-20T02:23:05;101590.69;;;24.92;84.88
11985;BME280;6052;53.246;10.368;2023-08-20T02:25:34;101593.19;;;25.02;84.51
11985;BME280;6052;53.246;10.368;2023-08-20T02:28:04;101595.28;;;24.96;84.18
11985;BME280;6052;53.246;10.368;2023-08-20T02:30:41;101603.00;;;24.94;84.72
11985;BME280;6052;53.246;10.368;2023-08-20T02:33:10;101605.88;;;24.89;84.92
11985;BME280;6052;53.246;10.368;2023-08-20T02:35:40;101600.06;;;24.91;84.67
11985;BME280;6052;53.246;10.368;2023-08-20T02:38:09;101605.38;;;24.87;84.99
11985;BME280;6052;53.246;10.368;2023-08-20T02:40:40;101602.63;;;24.87;84.73
11985;BME280;6052;53.246;10.368;2023-08-20T02:43:10;101605.97;;;24.84;85.14
11985;BME280;6052;53.246;10.368;2023-08-20T02:45:43;101600.00;;;24.82;85.24
11985;BME280;6052;53.246;10.368;2023-08-20T02:48:13;101603.25;;;24.84;85.29
11985;BME280;6052;53.246;10.368;2023-08-20T02:50:43;101603.66;;;24.78;85.54
11985;BME280;6052;53.246;10.368;2023-08-20T02:53:12;101601.25;;;24.76;85.57
11985;BME280;6052;53.246;10.368;2023-08-20T02:55:43;101598.50;;;24.76;85.25
11985;BME280;6052;53.246;10.368;2023-08-20T02:58:13;101603.66;;;24.78;86.02
11985;BME280;6052;53.246;10.368;2023-08-20T03:00:45;101594.94;;;24.76;85.47
11985;BME280;6052;53.246;10.368;2023-08-20T03:03:14;101597.66;;;24.76;85.38
11985;BME280;6052;53.246;10.368;2023-08-20T03:05:43;101601.53;;;24.75;85.95
11985;BME280;6052;53.246;10.368;2023-08-20T03:08:13;101597.47;;;24.72;85.56
11985;BME280;6052;53.246;10.368;2023-08-20T03:10:42;101593.91;;;24.72;85.88
11985;BME280;6052;53.246;10.368;2023-08-20T03:13:12;101594.31;;;24.65;85.94
11985;BME280;6052;53.246;10.368;2023-08-20T03:15:41;101594.56;;;24.69;86.08
11985;BME280;6052;53.246;10.368;2023-08-20T03:18:13;101595.97;;;24.66;86.07
11985;BME280;6052;53.246;10.368;2023-08-20T03:20:42;101600.66;;;24.66;85.94
11985;BME280;6052;53.246;10.368;2023-08-20T03:23:12;101603.28;;;24.71;85.39
11985;BME280;6052;53.246;10.368;2023-08-20T03:25:41;101600.66;;;24.66;85.69
11985;BME280;6052;53.246;10.368;2023-08-20T03:28:10;101597.19;;;24.60;85.75
11985;BME280;6052;53.246;10.368;2023-08-20T03:30:40;101605.50;;;24.55;86.37
11985;BME280;6052;53.246;10.368;2023-08-20T03:33:09;101609.31;;;24.59;86.54
11985;BME280;6052;53.246;10.368;2023-08-20T03:35:41;101610.50;;;24.53;86.38
11985;BME280;6052;53.246;10.368;2023-08-20T03:38:11;101610.81;;;24.52;85.85
11985;BME280;6052;53.246;10.368;2023-08-20T03:40:40;101616.81;;;24.54;86.25
11985;BME280;6052;53.246;10.368;2023-08-20T03:43:09;101624.84;;;24.50;86.12
11985;BME280;6052;53.246;10.368;2023-08-20T03:45:39;101621.19;;;24.41;86.44
11985;BME280;6052;53.246;10.368;2023-08-20T03:48:08;101621.78;;;24.52;86.10
11985;BME280;6052;53.246;10.368;2023-08-20T03:50:37;101625.44;;;24.34;86.68
11985;BME280;6052;53.246;10.368;2023-08-20T03:53:09;101630.75;;;24.44;86.20
11985;BME280;6052;53.246;10.368;2023-08-20T03:55:39;101626.38;;;24.43;86.53
11985;BME280;6052;53.246;10.368;2023-08-20T03:58:08;101622.53;;;24.44;86.18
11985;BME280;6052;53.246;10.368;2023-08-20T04:00:38;101620.56;;;24.44;86.25
11985;BME280;6052;53.246;10.368;2023-08-20T04:03:07;101614.06;;;24.40;86.22
11985;BME280;6052;53.246;10.368;2023-08-20T04:05:38;101619.56;;;24.40;85.84
11985;BME280;6052;53.246;10.368;2023-08-20T04:08:11;101634.09;;;24.41;85.64
11985;BME280;6052;53.246;10.368;2023-08-20T04:10:43;101640.72;;;24.40;86.19
11985;BME280;6052;53.246;10.368;2023-08-20T04:13:13;101638.88;;;24.35;86.09
11985;BME280;6052;53.246;10.368;2023-08-20T04:15:40;101641.44;;;24.32;85.99
11985;BME280;6052;53.246;10.368;2023-08-20T04:18:13;101649.97;;;24.30;85.81
11985;BME280;6052;53.246;10.368;2023-08-20T04:20:45;101644.19;;;24.18;86.89
11985;BME280;6052;53.246;10.368;2023-08-20T04:23:17;101662.25;;;24.19;86.42
11985;BME280;6052;53.246;10.368;2023-08-20T04:25:48;101646.19;;;24.26;86.22
11985;BME280;6052;53.246;10.368;2023-08-20T04:28:18;101655.34;;;24.22;86.34
11985;BME280;6052;53.246;10.368;2023-08-20T04:30:47;101653.22;;;24.19;86.35
11985;BME280;6052;53.246;10.368;2023-08-20T04:33:17;101652.31;;;24.23;86.30
11985;BME280;6052;53.246;10.368;2023-08-20T04:35:50;101648.84;;;24.18;86.86
11985;BME280;6052;53.246;10.368;2023-08-20T04:38:22;101653.09;;;24.10;86.18
11985;BME280;6052;53.246;10.368;2023-08-20T04:40:52;101656.78;;;24.19;86.52
11985;BME280;6052;53.246;10.368;2023-08-20T04:43:21;101664.72;;;24.07;87.00
11985;BME280;6052;53.246;10.368;2023-08-20T04:45:51;101659.81;;;24.04;86.62
11985;BME280;6052;53.246;10.368;2023-08-20T04:48:20;101660.00;;;24.08;86.46
11985;BME280;6052;53.246;10.368;2023-08-20T04:50:53;101665.28;;;24.04;86.73
11985;BME280;6052;53.246;10.368;2023-08-20T04:53:25;101663.69;;;24.03;86.50
11985;BME280;6052;53.246;10.368;2023-08-20T04:55:54;101653.78;;;24.02;86.73
11985;BME280;6052;53.246;10.368;2023-08-20T04:58:24;101665.88;;;24.01;86.29
11985;BME280;6052;53.246;10.368;2023-08-20T05:00:53;101668.94;;;24.00;87.05
11985;BME280;6052;53.246;10.368;2023-08-20T05:03:23;101675.63;;;23.94;87.08
11985;BME280;6052;53.246;10.368;2023-08-20T05:05:53;101676.97;;;23.96;86.66
11985;BME280;6052;53.246;10.368;2023-08-20T05:08:24;101673.63;;;23.99;86.59
11985;BME280;6052;53.246;10.368;2023-08-20T05:10:54;101682.84;;;23.90;87.69
11985;BME280;6052;53.246;10.368;2023-08-20T05:13:23;101672.38;;;23.92;87.94
11985;BME280;6052;53.246;10.368;2023-08-20T05:15:53;101677.69;;;24.02;86.83
11985;BME280;6052;53.246;10.368;2023-08-20T05:18:22;101676.06;;;24.01;87.30
11985;BME280;6052;53.246;10.368;2023-08-20T05:20:53;101687.44;;;23.94;87.40
11985;BME280;6052;53.246;10.368;2023-08-20T05:23:25;101675.50;;;23.85;87.67
11985;BME280;6052;53.246;10.368;2023-08-20T05:25:55;101668.03;;;23.91;88.25
11985;BME280;6052;53.246;10.368;2023-08-20T05:28:24;101679.44;;;23.79;88.33
11985;BME280;6052;53.246;10.368;2023-08-20T05:30:54;101670.91;;;23.81;88.34
11985;BME280;6052;53.246;10.368;2023-08-20T05:33:25;101662.38;;;23.82;88.59
11985;BME280;6052;53.246;10.368;2023-08-20T05:35:55;101667.47;;;23.89;88.14
11985;BME280;6052;53.246;10.368;2023-08-20T05:38:27;101669.13;;;23.90;88.34
11985;BME280;6052;53.246;10.368;2023-08-20T05:40:56;101661.78;;;23.85;88.09
11985;BME280;6052;53.246;10.368;2023-08-20T05:43:26;101662.06;;;23.84;87.84
11985;BME280;6052;53.246;10.368;2023-08-20T05:45:55;101665.28;;;23.91;87.83
11985;BME280;6052;53.246;10.368;2023-08-20T05:48:25;101650.44;;;23.92;88.39
11985;BME280;6052;53.246;10.368;2023-08-20T05:50:56;101639.81;;;23.85;88.20
11985;BME280;6052;53.246;10.368;2023-08-20T05:53:28;101626.16;;;23.99;87.86
11985;BME280;6052;53.246;10.368;2023-08-20T05:55:57;101617.28;;;23.88;87.77
11985;BME280;6052;53.246;10.368;2023-08-20T05:58:31;101600.84;;;23.88;87.81
11985;BME280;6052;53.246;10.368;2023-08-20T06:01:00;101603.94;;;23.68;89.40
11985;BME280;6052;53.246;10.368;2023-08-20T06:03:30;101599.53;;;23.54;90.97
11985;BME280;6052;53.246;10.368;2023-08-20T06:05:59;101596.84;;;23.35;91.64
11985;BME280;6052;53.246;10.368;2023-08-20T06:08:35;101604.50;;;23.20;94.29
11985;BME280;6052;53.246;10.368;2023-08-20T06:11:05;101618.69;;;23.22;95.71
11985;BME280;6052;53.246;10.368;2023-08-20T06:13:35;101627.78;;;23.54;92.99
11985;BME280;6052;53.246;10.368;2023-08-20T06:16:06;101630.97;;;23.43;94.16
11985;BME280;6052;53.246;10.368;2023-08-20T06:18:36;101631.50;;;23.77;92.28
11985;BME280;6052;53.246;10.368;2023-08-20T06:21:06;101632.06;;;23.74;90.83
11985;BME280;6052;53.246;10.368;2023-08-20T06:23:38;101640.22;;;23.79;90.96
11985;BME280;6052;53.246;10.368;2023-08-20T06:26:10;101654.38;;;23.54;93.14
11985;BME280;6052;53.246;10.368;2023-08-20T06:28:39;101650.34;;;23.65;91.77
11985;BME280;6052;53.246;10.368;2023-08-20T06:31:08;101649.53;;;23.64;92.57
11985;BME280;6052;53.246;10.368;2023-08-20T06:33:38;101655.44;;;23.71;92.79
11985;BME280;6052;53.246;10.368;2023-08-20T06:36:07;101647.13;;;23.76;92.22
11985;BME280;6052;53.246;10.368;2023-08-20T06:38:39;101653.03;;;23.83;92.59
11985;BME280;6052;53.246;10.368;2023-08-20T06:41:08;101657.75;;;23.64;94.00
11985;BME280;6052;53.246;10.368;2023-08-20T06:43:38;101661.38;;;23.78;91.88
11985;BME280;6052;53.246;10.368;2023-08-20T06:46:07;101662.53;;;23.72;91.56
11985;BME280;6052;53.246;10.368;2023-08-20T06:48:37;101663.34;;;23.91;91.94
11985;BME280;6052;53.246;10.368;2023-08-20T06:51:12;101668.09;;;23.86;92.52
11985;BME280;6052;53.246;10.368;2023-08-20T06:53:45;101670.16;;;23.62;93.71
11985;BME280;6052;53.246;10.368;2023-08-20T06:56:14;101672.63;;;23.77;93.05
11985;BME280;6052;53.246;10.368;2023-08-20T06:58:43;101675.47;;;23.72;93.81
11985;BME280;6052;53.246;10.368;2023-08-20T07:01:13;101672.94;;;23.89;93.86
11985;BME280;6052;53.246;10.368;2023-08-20T07:03:43;101675.94;;;23.92;93.32
11985;BME280;6052;53.246;10.368;2023-08-20T07:06:13;101667.31;;;23.99;91.45
11985;BME280;6052;53.246;10.368;2023-08-20T07:08:47;101677.59;;;23.93;91.26
11985;BME280;6052;53.246;10.368;2023-08-20T07:11:16;101672.88;;;23.94;90.17
11985;BME280;6052;53.246;10.368;2023-08-20T07:13:46;101670.69;;;24.09;89.06
11985;BME280;6052;53.246;10.368;2023-08-20T07:16:15;101671.47;;;23.96;89.80
11985;BME280;6052;53.246;10.368;2023-08-20T07:18:45;101681.94;;;23.94;88.93
11985;BME280;6052;53.246;10.368;2023-08-20T07:21:14;101679.13;;;23.99;89.18
11985;BME280;6052;53.246;10.368;2023-08-20T07:23:43;101677.59;;;24.20;90.53
11985;BME280;6052;53.246;10.368;2023-08-20T07:26:16;101680.94;;;24.04;89.31
11985;BME280;6052;53.246;10.368;2023-08-20T07:28:45;101679.13;;;24.13;88.34
11985;BME280;6052;53.246;10.368;2023-08-20T07:31:27;101675.59;;;24.12;90.14
11985;BME280;6052;53.246;10.368;2023-08-20T07:34:00;101677.91;;;24.19;89.94
11985;BME280;6052;53.246;10.368;2023-08-20T07:36:32;101676.81;;;24.20;88.68
11985;BME280;6052;53.246;10.368;2023-08-20T07:39:01;101678.94;;;24.23;86.95
11985;BME280;6052;53.246;10.368;2023-08-20T07:41:33;101674.69;;;24.44;88.22
11985;BME280;6052;53.246;10.368;2023-08-20T07:44:03;101674.25;;;24.50;89.89
11985;BME280;6052;53.246;10.368;2023-08-20T07:46:34;101677.34;;;24.49;89.37
11985;BME280;6052;53.246;10.368;2023-08-20T07:49:03;101674.03;;;24.06;87.15
11985;BME280;6052;53.246;10.368;2023-08-20T07:51:34;101674.91;;;24.47;89.61
11985;BME280;6052;53.246;10.368;2023-08-20T07:54:03;101675.41;;;24.63;87.91
11985;BME280;6052;53.246;10.368;2023-08-20T07:56:35;101675.75;;;24.61;84.77
11985;BME280;6052;53.246;10.368;2023-08-20T07:59:05;101681.06;;;24.53;80.48
11985;BME280;6052;53.246;10.368;2023-08-20T08:01:34;101691.75;;;24.54;80.66
11985;BME280;6052;53.246;10.368;2023-08-20T08:04:04;101689.97;;;24.63;80.05
11985;BME280;6052;53.246;10.368;2023-08-20T08:06:34;101688.03;;;24.77;80.86
11985;BME280;6052;53.246;10.368;2023-08-20T08:09:28;101692.69;;;24.77;81.28
11985;BME280;6052;53.246;10.368;2023-08-20T08:12:01;101698.78;;;24.87;81.40
11985;BME280;6052;53.246;10.368;2023-08-20T08:14:30;101696.44;;;24.94;81.25
11985;BME280;6052;53.246;10.368;2023-08-20T08:17:00;101701.50;;;25.01;80.60
11985;BME280;6052;53.246;10.368;2023-08-20T08:19:29;101698.28;;;24.99;80.41
11985;BME280;6052;53.246;10.368;2023-08-20T08:21:59;101704.88;;;25.11;80.44
11985;BME280;6052;53.246;10.368;2023-08-20T08:24:29;101693.31;;;25.23;81.04
11985;BME280;6052;53.246;10.368;2023-08-20T08:27:01;101690.69;;;25.31;80.63
11985;BME280;6052;53.246;10.368;2023-08-20T08:29:30;101699.22;;;25.30;80.15
11985;BME280;6052;53.246;10.368;2023-08-20T08:32:00;101695.75;;;25.38;81.02
11985;BME280;6052;53.246;10.368;2023-08-20T08:34:29;101700.56;;;25.32;78.78
11985;BME280;6052;53.246;10.368;2023-08-20T08:36:58;101701.56;;;25.36;80.01
11985;BME280;6052;53.246;10.368;2023-08-20T08:39:28;101704.69;;;25.43;79.73
11985;BME280;6052;53.246;10.368;2023-08-20T08:42:04;101698.94;;;25.53;80.73
11985;BME280;6052;53.246;10.368;2023-08-20T08:44:34;101701.00;;;25.70;80.93
11985;BME280;6052;53.246;10.368;2023-08-20T08:47:06;101707.50;;;25.74;81.95
11985;BME280;6052;53.246;10.368;2023-08-20T08:49:35;101703.13;;;25.73;78.89
11985;BME280;6052;53.246;10.368;2023-08-20T08:52:05;101705.75;;;25.78;78.82
11985;BME280;6052;53.246;10.368;2023-08-20T08:54:36;101705.03;;;25.86;78.89
11985;BME280;6052;53.246;10.368;2023-08-20T08:57:08;101702.25;;;25.86;80.20
11985;BME280;6052;53.246;10.368;2023-08-20T08:59:38;101710.19;;;25.87;77.14
11985;BME280;6052;53.246;10.368;2023-08-20T09:02:08;101715.66;;;26.01;77.09
11985;BME280;6052;53.246;10.368;2023-08-20T09:04:39;101716.91;;;25.95;75.11
11985;BME280;6052;53.246;10.368;2023-08-20T09:07:11;101720.53;;;26.04;76.04
11985;BME280;6052;53.246;10.368;2023-08-20T09:09:42;101717.50;;;26.14;75.04
11985;BME280;6052;53.246;10.368;2023-08-20T09:12:19;101719.72;;;26.03;75.84
11985;BME280;6052;53.246;10.368;2023-08-20T09:14:50;101708.75;;;26.12;75.15
11985;BME280;6052;53.246;10.368;2023-08-20T09:17:20;101719.78;;;26.12;75.69
11985;BME280;6052;53.246;10.368;2023-08-20T09:19:50;101709.34;;;26.31;76.76
11985;BME280;6052;53.246;10.368;2023-08-20T09:22:20;101720.19;;;26.27;76.08
11985;BME280;6052;53.246;10.368;2023-08-20T09:24:54;101716.31;;;26.28;75.64
11985;BME280;6052;53.246;10.368;2023-08-20T09:27:26;101717.16;;;26.37;75.47
11985;BME280;6052;53.246;10.368;2023-08-20T09:29:56;101712.50;;;26.46;76.49
11985;BME280;6052;53.246;10.368;2023-08-20T09:32:27;101713.28;;;26.47;76.55
11985;BME280;6052;53.246;10.368;2023-08-20T09:34:57;101710.91;;;26.93;78.54
11985;BME280;6052;53.246;10.368;2023-08-20T09:37:27;101709.97;;;26.58;74.74
11985;BME280;6052;53.246;10.368;2023-08-20T09:39:56;101716.16;;;26.64;75.46
11985;BME280;6052;53.246;10.368;2023-08-20T09:42:30;101716.81;;;26.78;76.02
11985;BME280;6052;53.246;10.368;2023-08-20T09:45:02;101723.47;;;26.68;74.65
11985;BME280;6052;53.246;10.368;2023-08-20T09:47:33;101718.72;;;26.60;73.91
11985;BME280;6052;53.246;10.368;2023-08-20T09:50:09;101713.56;;;26.59;73.88
11985;BME280;6052;53.246;10.368;2023-08-20T09:52:44;101721.53;;;26.69;74.27
11985;BME280;6052;53.246;10.368;2023-08-20T09:55:16;101709.25;;;26.92;74.54
11985;BME280;6052;53.246;10.368;2023-08-20T09:57:52;101707.94;;;26.81;74.14
11985;BME280;6052;53.246;10.368;2023-08-20T10:00:23;101711.38;;;26.86;75.68
11985;BME280;6052;53.246;10.368;2023-08-20T10:02:53;101710.84;;;26.76;73.86
11985;BME280;6052;53.246;10.368;2023-08-20T10:05:23;101718.97;;;26.89;74.10
11985;BME280;6052;53.246;10.368;2023-08-20T10:07:52;101713.94;;;26.83;74.22
11985;BME280;6052;53.246;10.368;2023-08-20T10:10:24;101711.69;;;27.02;75.85
11985;BME280;6052;53.246;10.368;2023-08-20T10:12:57;101707.16;;;27.14;74.75
11985;BME280;6052;53.246;10.368;2023-08-20T10:15:29;101705.72;;;27.17;75.40
11985;BME280;6052;53.246;10.368;2023-08-20T10:18:00;101697.00;;;27.23;74.60
11985;BME280;6052;53.246;10.368;2023-08-20T10:20:31;101704.75;;;27.13;74.63
11985;BME280;6052;53.246;10.368;2023-08-20T10:23:03;101695.16;;;26.93;73.88
11985;BME280;6052;53.246;10.368;2023-08-20T10:25:40;101698.09;;;27.05;74.01
11985;BME280;6052;53.246;10.368;2023-08-20T10:28:19;101694.84;;;27.03;73.41
11985;BME280;6052;53.246;10.368;2023-08-20T10:31:04;101697.59;;;26.95;73.44
11985;BME280;6052;53.246;10.368;2023-08-20T10:33:34;101682.19;;;27.02;73.18
11985;BME280;6052;53.246;10.368;2023-08-20T10:36:08;101683.34;;;27.01;73.52
11985;BME280;6052;53.246;10.368;2023-08-20T10:38:38;101685.44;;;27.04;74.23
11985;BME280;6052;53.246;10.368;2023-08-20T10:41:08;101673.44;;;27.00;73.37
11985;BME280;6052;53.246;10.368;2023-08-20T10:43:46;101677.00;;;27.09;74.82
11985;BME280;6052;53.246;10.368;2023-08-20T10:46:17;101681.59;;;27.22;74.48
11985;BME280;6052;53.246;10.368;2023-08-20T10:48:48;101673.97;;;27.28;75.41
11985;BME280;6052;53.246;10.368;2023-08-20T10:51:19;101679.66;;;27.23;74.02
11985;BME280;6052;53.246;10.368;2023-08-20T10:54:04;101670.41;;;27.27;74.33
11985;BME280;6052;53.246;10.368;2023-08-20T10:56:38;101675.75;;;27.32;74.76
11985;BME280;6052;53.246;10.368;2023-08-20T10:59:14;101671.03;;;27.41;75.27
11985;BME280;6052;53.246;10.368;2023-08-20T11:01:45;101674.44;;;27.55;74.85
11985;BME280;6052;53.246;10.368;2023-08-20T11:04:15;101678.03;;;27.30;73.83
11985;BME280;6052;53.246;10.368;2023-08-20T11:06:46;101674.41;;;27.72;77.53
11985;BME280;6052;53.246;10.368;2023-08-20T11:09:18;101676.06;;;27.56;73.65
11985;BME280;6052;53.246;10.368;2023-08-20T11:11:50;101670.56;;;27.48;74.80
11985;BME280;6052;53.246;10.368;2023-08-20T11:14:22;101667.94;;;27.60;74.37
11985;BME280;6052;53.246;10.368;2023-08-20T11:16:51;101673.75;;;27.75;74.10
11985;BME280;6052;53.246;10.368;2023-08-20T11:19:22;101668.41;;;27.70;73.67
11985;BME280;6052;53.246;10.368;2023-08-20T11:21:52;101677.81;;;27.78;73.39
11985;BME280;6052;53.246;10.368;2023-08-20T11:24:21;101675.72;;;27.92;73.53
11985;BME280;6052;53.246;10.368;2023-08-20T11:26:53;101675.38;;;27.76;72.99
11985;BME280;6052;53.246;10.368;2023-08-20T11:29:25;101686.28;;;27.73;72.60
11985;BME280;6052;53.246;10.368;2023-08-20T11:31:58;101688.22;;;27.64;71.79
11985;BME280;6052;53.246;10.368;2023-08-20T11:34:31;101687.88;;;27.74;72.81
11985;BME280;6052;53.246;10.368;2023-08-20T11:37:01;101689.97;;;27.94;71.79
11985;BME280;6052;53.246;10.368;2023-08-20T11:39:30;101689.81;;;27.99;72.26
11985;BME280;6052;53.246;10.368;2023-08-20T11:42:00;101689.97;;;28.02;71.92
11985;BME280;6052;53.246;10.368;2023-08-20T11:44:42;101696.00;;;27.87;72.44
11985;BME280;6052;53.246;10.368;2023-08-20T11:47:15;101690.28;;;28.09;73.26
11985;BME280;6052;53.246;10.368;2023-08-20T11:49:45;101684.25;;;28.16;73.80
11985;BME280;6052;53.246;10.368;2023-08-20T11:52:14;101686.38;;;28.10;73.16
11985;BME280;6052;53.246;10.368;2023-08-20T11:54:44;101688.78;;;28.66;72.28
11985;BME280;6052;53.246;10.368;2023-08-20T11:57:14;101692.44;;;28.50;72.84
11985;BME280;6052;53.246;10.368;2023-08-20T11:59:46;101685.34;;;28.23;71.47
11985;BME280;6052;53.246;10.368;2023-08-20T12:02:15;101686.50;;;28.22;71.69
11985;BME280;6052;53.246;10.368;2023-08-20T12:05:04;101683.69;;;28.39;72.38
11985;BME280;6052;53.246;10.368;2023-08-20T12:07:34;101687.25;;;28.31;72.03
11985;BME280;6052;53.246;10.368;2023-08-20T12:10:19;101682.44;;;28.20;72.27
11985;BME280;6052;53.246;10.368;2023-08-20T12:12:49;101690.19;;;28.26;71.46
11985;BME280;6052;53.246;10.368;2023-08-20T12:15:22;101689.38;;;28.34;71.94
11985;BME280;6052;53.246;10.368;2023-08-20T12:17:58;101689.09;;;28.27;72.58
11985;BME280;6052;53.246;10.368;2023-08-20T12:20:32;101679.09;;;28.06;71.90
11985;BME280;6052;53.246;10.368;2023-08-20T12:23:03;101679.69;;;28.20;71.50
11985;BME280;6052;53.246;10.368;2023-08-20T12:25:34;101676.16;;;28.11;71.36
11985;BME280;6052;53.246;10.368;2023-08-20T12:28:05;101685.41;;;28.06;71.13
11985;BME280;6052;53.246;10.368;2023-08-20T12:30:37;101678.50;;;28.29;71.55
11985;BME280;6052;53.246;10.368;2023-08-20T12:33:07;101677.09;;;28.15;71.73
11985;BME280;6052;53.246;10.368;2023-08-20T12:35:37;101682.44;;;28.20;72.86
11985;BME280;6052;53.246;10.368;2023-08-20T12:38:07;101673.09;;;27.95;70.85
11985;BME280;6052;53.246;10.368;2023-08-20T12:40:36;101673.75;;;28.01;71.79
11985;BME280;6052;53.246;10.368;2023-08-20T12:43:05;101675.19;;;28.07;71.88
11985;BME280;6052;53.246;10.368;2023-08-20T12:45:38;101674.03;;;28.08;71.80
11985;BME280;6052;53.246;10.368;2023-08-20T12:48:07;101673.88;;;28.04;70.36
11985;BME280;6052;53.246;10.368;2023-08-20T12:50:37;101678.72;;;28.16;70.80
11985;BME280;6052;53.246;10.368;2023-08-20T12:53:06;101676.25;;;28.23;70.45
11985;BME280;6052;53.246;10.368;2023-08-20T12:55:36;101678.25;;;28.05;70.60
11985;BME280;6052;53.246;10.368;2023-08-20T12:58:05;101677.47;;;28.05;69.99
11985;BME280;6052;53.246;10.368;2023-08-20T13:00:37;101671.22;;;28.16;71.11
11985;BME280;6052;53.246;10.368;2023-08-20T13:03:08;101669.78;;;28.10;71.21
11985;BME280;6052;53.246;10.368;2023-08-20T13:05:38;101680.00;;;28.18;71.57
11985;BME280;6052;53.246;10.368;2023-08-20T13:08:09;101676.78;;;28.08;71.33
11985;BME280;6052;53.246;10.368;2023-08-20T13:10:40;101661.38;;;28.07;69.59